createdAt,value
2023-05-16T00:00:49.630Z,8.9312
2023-05-16T00:01:51.133Z,8.9249
2023-05-16T00:02:51.844Z,8.9169
2023-05-16T00:03:52.562Z,8.9769
2023-05-16T00:04:53.099Z,9.0132
2023-05-16T00:05:53.544Z,9.0654
2023-05-16T00:06:54.030Z,9.0959
2023-05-16T00:08:55.983Z,9.0998
2023-05-16T00:09:56.689Z,9.0769
2023-05-16T00:10:57.355Z,9.0683
2023-05-16T00:11:58.490Z,9.0762
2023-05-16T00:13:00.036Z,9.0688
2023-05-16T00:14:00.702Z,9.0591
2023-05-16T00:15:01.931Z,9.0725
2023-05-16T00:16:02.604Z,9.0711
2023-05-16T00:17:04.130Z,9.0950
2023-05-16T00:18:05.367Z,9.1372
2023-05-16T00:19:06.942Z,9.1392
2023-05-16T00:20:07.638Z,9.1465
2023-05-16T00:21:08.186Z,9.1767
2023-05-16T00:22:09.021Z,9.1908
2023-05-16T00:23:09.796Z,9.2267
2023-05-16T00:24:10.281Z,9.2522
2023-05-16T00:25:11.246Z,9.2520
2023-05-16T00:26:11.755Z,9.2537
2023-05-16T00:27:12.872Z,9.2567
2023-05-16T00:28:13.701Z,9.2562
2023-05-16T00:29:14.867Z,9.2674
2023-05-16T00:30:15.527Z,9.2639
2023-05-16T00:31:17.278Z,9.2560
2023-05-16T00:32:18.611Z,9.2588
2023-05-16T00:33:19.414Z,9.2460
2023-05-16T00:34:20.557Z,9.2601
2023-05-16T00:35:21.046Z,9.3087
2023-05-16T00:37:23.484Z,9.3345
2023-05-16T00:38:24.651Z,9.3501
2023-05-16T00:39:25.364Z,9.3737
2023-05-16T00:40:26.897Z,9.3854
2023-05-16T00:41:28.252Z,9.4056
2023-05-16T00:42:28.998Z,9.3944
2023-05-16T00:43:30.468Z,9.3806
2023-05-16T00:44:31.665Z,9.3724
2023-05-16T00:45:32.885Z,9.3649
2023-05-16T00:46:34.260Z,9.3531
2023-05-16T00:47:34.896Z,9.3587
2023-05-16T00:49:37.223Z,9.3389
2023-05-16T00:50:37.960Z,9.3305
2023-05-16T00:51:39.510Z,9.3142
2023-05-16T00:52:40.055Z,9.2895
2023-05-16T00:53:40.927Z,9.2883
2023-05-16T00:54:42.279Z,9.3106
2023-05-16T00:55:44.675Z,9.3474
2023-05-16T00:56:45.400Z,9.3475
2023-05-16T00:57:46.871Z,9.3474
2023-05-16T00:58:48.050Z,9.3827
2023-05-16T00:59:48.917Z,9.3900
2023-05-16T01:00:50.244Z,9.3539
2023-05-16T01:01:51.608Z,9.3416
2023-05-16T01:02:52.429Z,9.2951
2023-05-16T01:04:54.200Z,9.2939
2023-05-16T01:05:54.895Z,9.3074
2023-05-16T01:07:57.563Z,9.2929
2023-05-16T01:08:58.122Z,9.2998
2023-05-16T01:10:59.811Z,9.3254
2023-05-16T01:12:01.048Z,9.3037
2023-05-16T01:13:01.795Z,9.2885
2023-05-16T01:14:03.182Z,9.2986
2023-05-16T01:15:04.382Z,9.3016
2023-05-16T01:16:05.460Z,9.3182
2023-05-16T01:17:06.375Z,9.3562
2023-05-16T01:18:07.365Z,9.3897
2023-05-16T01:19:08.321Z,9.4137
2023-05-16T01:20:09.811Z,9.4234
2023-05-16T01:21:11.063Z,9.4147
2023-05-16T01:22:11.625Z,9.4079
2023-05-16T01:23:12.318Z,9.3675
2023-05-16T01:24:13.469Z,9.3445
2023-05-16T01:25:14.009Z,9.3595
2023-05-16T01:27:15.141Z,9.3911
2023-05-16T01:29:16.883Z,9.3840
2023-05-16T01:31:18.613Z,9.4423
2023-05-16T01:32:20.055Z,9.4572
2023-05-16T01:33:21.257Z,9.4635
2023-05-16T01:34:21.881Z,9.4648
2023-05-16T01:35:22.447Z,9.4499
2023-05-16T01:36:23.011Z,9.4395
2023-05-16T01:37:24.317Z,9.4248
2023-05-16T01:38:25.308Z,9.4037
2023-05-16T01:39:26.095Z,9.3899
2023-05-16T01:40:27.048Z,9.3959
2023-05-16T01:41:27.634Z,9.3832
2023-05-16T01:42:28.515Z,9.3837
2023-05-16T01:45:30.318Z,9.4499
2023-05-16T01:47:33.536Z,9.5344
2023-05-16T01:48:34.755Z,9.5831
2023-05-16T01:50:35.834Z,9.6064
2023-05-16T01:51:36.930Z,9.5969
2023-05-16T01:52:38.715Z,9.5869
2023-05-16T01:53:40.397Z,9.6049
2023-05-16T01:54:41.888Z,9.5563
2023-05-16T01:55:42.976Z,9.5435
2023-05-16T01:56:44.055Z,9.5457
2023-05-16T01:57:44.633Z,9.5253
2023-05-16T01:58:45.339Z,9.5427
2023-05-16T01:59:46.983Z,9.5241
2023-05-16T02:00:47.873Z,9.5462
2023-05-16T02:01:48.674Z,9.5384
2023-05-16T02:02:49.890Z,9.5610
2023-05-16T02:03:50.691Z,9.5589
2023-05-16T02:04:51.986Z,9.5672
2023-05-16T02:05:53.153Z,9.5546
2023-05-16T02:06:54.328Z,9.5587
2023-05-16T02:07:55.013Z,9.5378
2023-05-16T02:08:56.653Z,9.5580
2023-05-16T02:09:57.908Z,9.5721
2023-05-16T02:10:59.495Z,9.6000
2023-05-16T02:12:00.064Z,9.6026
2023-05-16T02:13:01.208Z,9.5956
2023-05-16T02:14:02.397Z,9.6153
2023-05-16T02:15:03.067Z,9.6116
2023-05-16T02:16:04.264Z,9.5867
2023-05-16T02:17:05.704Z,9.5759
2023-05-16T02:18:06.323Z,9.6109
2023-05-16T02:19:07.627Z,9.5950
2023-05-16T02:20:08.848Z,9.5924
2023-05-16T02:21:09.451Z,9.5829
2023-05-16T02:22:09.999Z,9.5894
2023-05-16T02:23:11.133Z,9.5871
2023-05-16T02:24:12.280Z,9.6139
2023-05-16T02:26:13.855Z,9.6382
2023-05-16T02:27:14.410Z,9.6208
2023-05-16T02:29:15.923Z,9.6190
2023-05-16T02:30:16.476Z,9.6022
2023-05-16T02:31:18.053Z,9.6126
2023-05-16T02:32:18.591Z,9.5864
2023-05-16T02:33:19.709Z,9.5911
2023-05-16T02:34:21.248Z,9.5965
2023-05-16T02:35:22.401Z,9.5853
2023-05-16T02:36:22.947Z,9.5673
2023-05-16T02:37:24.255Z,9.5744
2023-05-16T02:38:25.603Z,9.5640
2023-05-16T02:39:26.150Z,9.5691
2023-05-16T02:40:27.054Z,9.5653
2023-05-16T02:41:28.555Z,9.5373
2023-05-16T02:42:29.969Z,9.5468
2023-05-16T02:43:31.331Z,9.5423
2023-05-16T02:44:32.624Z,9.5337
2023-05-16T02:45:33.209Z,9.5242
2023-05-16T02:46:34.714Z,9.5234
2023-05-16T02:47:36.002Z,9.5216
2023-05-16T02:48:36.568Z,9.5254
2023-05-16T02:49:37.820Z,9.5206
2023-05-16T02:50:38.939Z,9.5332
2023-05-16T02:51:39.620Z,9.5369
2023-05-16T02:52:40.915Z,9.5322
2023-05-16T02:53:41.467Z,9.5104
2023-05-16T02:54:42.024Z,9.5172
2023-05-16T02:55:43.303Z,9.5089
2023-05-16T02:56:43.984Z,9.5026
2023-05-16T02:57:45.351Z,9.4753
2023-05-16T02:58:46.485Z,9.4641
2023-05-16T02:59:47.063Z,9.4640
2023-05-16T03:00:48.165Z,9.4714
2023-05-16T03:01:49.440Z,9.4797
2023-05-16T03:02:50.673Z,9.4689
2023-05-16T03:03:51.403Z,9.4495
2023-05-16T03:05:53.191Z,9.4322
2023-05-16T03:06:53.776Z,9.4612
2023-05-16T03:07:54.740Z,9.4629
2023-05-16T03:08:56.083Z,9.4672
2023-05-16T03:09:56.670Z,9.4643
2023-05-16T03:10:57.728Z,9.4578
2023-05-16T03:11:58.283Z,9.4485
2023-05-16T03:12:59.073Z,9.4467
2023-05-16T03:14:01.687Z,9.4478
2023-05-16T03:15:00.655Z,9.4504
2023-05-16T03:16:01.576Z,9.4408
2023-05-16T03:18:02.705Z,9.4347
2023-05-16T03:20:04.244Z,9.4289
2023-05-16T03:21:05.668Z,9.4215
2023-05-16T03:22:06.935Z,9.4084
2023-05-16T03:23:08.499Z,9.3787
2023-05-16T03:24:10.126Z,9.3899
2023-05-16T03:25:10.820Z,9.4010
2023-05-16T03:26:12.374Z,9.4302
2023-05-16T03:27:13.658Z,9.4311
2023-05-16T03:28:15.446Z,9.4367
2023-05-16T03:29:17.026Z,9.4234
2023-05-16T03:30:18.236Z,9.4240
2023-05-16T03:31:18.811Z,9.4253
2023-05-16T03:32:20.316Z,9.4348
2023-05-16T03:33:21.788Z,9.4283
2023-05-16T03:34:22.711Z,9.4203
2023-05-16T03:35:23.982Z,9.4135
2023-05-16T03:36:24.697Z,9.3842
2023-05-16T03:37:26.068Z,9.3681
2023-05-16T03:38:27.249Z,9.3758
2023-05-16T03:39:27.991Z,9.3942
2023-05-16T03:41:29.001Z,9.4090
2023-05-16T03:42:29.761Z,9.3885
2023-05-16T03:43:30.979Z,9.3967
2023-05-16T03:44:32.103Z,9.3768
2023-05-16T03:45:32.659Z,9.3514
2023-05-16T03:46:33.452Z,9.3556
2023-05-16T03:47:34.673Z,9.3477
2023-05-16T03:48:35.239Z,9.3450
2023-05-16T03:49:35.864Z,9.3191
2023-05-16T03:50:36.968Z,9.3350
2023-05-16T03:51:38.735Z,9.3243
2023-05-16T03:52:39.870Z,9.3113
2023-05-16T03:53:40.991Z,9.3235
2023-05-16T03:54:41.938Z,9.3162
2023-05-16T03:56:43.712Z,9.3136
2023-05-16T03:57:44.436Z,9.3175
2023-05-16T03:58:45.796Z,9.3233
2023-05-16T03:59:46.346Z,9.2946
2023-05-16T04:00:47.080Z,9.3028
2023-05-16T04:01:48.521Z,9.3076
2023-05-16T04:02:50.084Z,9.3139
2023-05-16T04:03:50.900Z,9.3106
2023-05-16T04:04:52.843Z,9.2997
2023-05-16T04:05:54.272Z,9.3157
2023-05-16T04:06:54.996Z,9.3117
2023-05-16T04:07:56.600Z,9.3002
2023-05-16T04:08:57.195Z,9.2997
2023-05-16T04:09:58.086Z,9.3169
2023-05-16T04:10:59.562Z,9.3136
2023-05-16T04:12:00.943Z,9.3076
2023-05-16T04:13:02.487Z,9.3144
2023-05-16T04:15:04.853Z,9.3293
2023-05-16T04:16:05.564Z,9.3327
2023-05-16T04:17:07.050Z,9.3332
2023-05-16T04:18:08.583Z,9.3372
2023-05-16T04:19:09.300Z,9.3357
2023-05-16T04:20:11.001Z,9.3434
2023-05-16T04:22:11.110Z,9.3691
2023-05-16T04:23:12.805Z,9.3851
2023-05-16T04:24:13.599Z,9.3941
2023-05-16T04:25:14.140Z,9.4042
2023-05-16T04:26:15.357Z,9.4061
2023-05-16T04:27:15.946Z,9.4005
2023-05-16T04:28:16.484Z,9.4058
2023-05-16T04:29:18.125Z,9.4236
2023-05-16T04:30:18.836Z,9.4088
2023-05-16T04:31:20.785Z,9.4271
2023-05-16T04:32:22.167Z,9.4200
2023-05-16T04:33:22.712Z,9.3883
2023-05-16T04:34:24.425Z,9.4013
2023-05-16T04:35:26.607Z,9.4283
2023-05-16T04:36:27.444Z,9.4418
2023-05-16T04:37:28.714Z,9.4186
2023-05-16T04:38:30.117Z,9.4512
2023-05-16T04:39:30.682Z,9.4702
2023-05-16T04:41:32.694Z,9.4459
2023-05-16T04:42:33.650Z,9.4632
2023-05-16T04:44:36.108Z,9.4644
2023-05-16T04:45:37.937Z,9.4918
2023-05-16T04:47:38.431Z,9.5650
2023-05-16T04:48:39.030Z,9.5169
2023-05-16T04:49:39.566Z,9.5464
2023-05-16T04:50:41.037Z,9.5471
2023-05-16T04:51:42.891Z,9.5770
2023-05-16T04:52:43.647Z,9.5859
2023-05-16T04:53:45.323Z,9.6183
2023-05-16T04:54:46.313Z,9.6596
2023-05-16T04:55:47.367Z,9.6599
2023-05-16T04:56:47.940Z,9.7115
2023-05-16T04:57:48.974Z,9.7788
2023-05-16T04:58:49.717Z,9.7746
2023-05-16T04:59:50.968Z,9.7491
2023-05-16T05:00:51.590Z,9.6779
2023-05-16T05:01:52.338Z,9.6894
2023-05-16T05:02:53.625Z,9.7342
2023-05-16T05:03:55.090Z,9.6877
2023-05-16T05:04:56.446Z,9.7173
2023-05-16T05:05:57.736Z,9.7597
2023-05-16T05:06:58.481Z,9.7598
2023-05-16T05:07:59.217Z,9.7947
2023-05-16T05:09:00.961Z,9.7972
2023-05-16T05:10:02.215Z,9.8560
2023-05-16T05:11:03.483Z,9.8394
2023-05-16T05:12:04.835Z,9.8059
2023-05-16T05:13:05.805Z,9.8404
2023-05-16T05:14:06.357Z,9.8691
2023-05-16T05:15:07.209Z,9.8462
2023-05-16T05:16:08.327Z,9.8368
2023-05-16T05:17:09.130Z,9.8318
2023-05-16T05:18:09.976Z,9.8107
2023-05-16T05:19:10.728Z,9.8584
2023-05-16T05:20:11.462Z,9.9073
2023-05-16T05:22:12.739Z,9.8404
2023-05-16T05:24:13.870Z,9.9227
2023-05-16T05:25:14.405Z,9.9402
2023-05-16T05:26:15.144Z,9.9589
2023-05-16T05:27:15.706Z,10.0625
2023-05-16T05:31:18.378Z,10.0707
2023-05-16T05:32:18.939Z,10.0875
2023-05-16T05:33:20.079Z,10.2003
2023-05-16T05:34:20.832Z,10.2203
2023-05-16T05:35:21.529Z,10.2129
2023-05-16T05:36:22.580Z,10.2947
2023-05-16T05:37:23.117Z,10.2867
2023-05-16T05:38:23.690Z,10.3855
2023-05-16T05:39:24.713Z,10.3915
2023-05-16T05:40:25.641Z,10.4234
2023-05-16T05:41:31.456Z,10.4684
2023-05-16T05:43:27.600Z,10.3763
2023-05-16T05:44:28.312Z,10.4817
2023-05-16T05:45:29.618Z,10.5012
2023-05-16T05:46:30.689Z,10.4594
2023-05-16T05:47:31.475Z,10.5484
2023-05-16T05:48:32.016Z,10.4104
2023-05-16T05:49:32.642Z,10.4116
2023-05-16T05:50:33.387Z,10.3322
2023-05-16T05:51:33.993Z,10.4017
2023-05-16T05:52:34.771Z,10.4596
2023-05-16T05:53:35.865Z,10.4111
2023-05-16T05:54:36.534Z,10.5701
2023-05-16T05:55:37.131Z,10.6317
2023-05-16T05:56:38.021Z,10.5409
2023-05-16T05:57:38.598Z,10.5238
2023-05-16T05:58:39.198Z,10.4789
2023-05-16T05:59:39.783Z,10.4025
2023-05-16T06:00:40.378Z,10.3878
2023-05-16T06:01:41.003Z,10.3988
2023-05-16T06:02:41.699Z,10.3003
2023-05-16T06:03:42.586Z,10.3620
2023-05-16T06:04:43.161Z,10.3307
2023-05-16T06:05:43.886Z,10.4054
2023-05-16T06:06:45.103Z,10.5183
2023-05-16T06:07:45.904Z,10.5114
2023-05-16T06:08:46.475Z,10.4627
2023-05-16T06:09:47.277Z,10.3965
2023-05-16T06:10:48.085Z,10.4598
2023-05-16T06:11:49.359Z,10.4486
2023-05-16T06:12:50.647Z,10.4273
2023-05-16T06:13:51.279Z,10.2970
2023-05-16T06:14:52.451Z,10.2542
2023-05-16T06:15:54.078Z,10.2859
2023-05-16T06:16:55.447Z,10.2452
2023-05-16T06:17:56.705Z,10.2751
2023-05-16T06:18:57.391Z,10.3356
2023-05-16T06:19:58.134Z,10.2750
2023-05-16T06:20:59.823Z,10.2820
2023-05-16T06:22:01.524Z,10.3631
2023-05-16T06:23:03.091Z,10.4402
2023-05-16T06:33:12.149Z,10.2744
2023-05-16T06:34:12.930Z,10.3225
2023-05-16T06:36:15.260Z,10.3891
2023-05-16T06:37:17.196Z,10.3808
2023-05-16T06:38:17.786Z,10.4665
2023-05-16T06:39:19.000Z,10.4273
2023-05-16T06:40:21.390Z,10.5103
2023-05-16T06:41:22.187Z,10.5672
2023-05-16T06:43:24.650Z,10.6112
2023-05-16T06:44:25.439Z,10.5945
2023-05-16T06:45:27.078Z,10.7482
2023-05-16T06:46:29.188Z,10.7942
2023-05-16T06:47:30.117Z,10.6675
2023-05-16T06:48:31.571Z,10.8186
2023-05-16T06:49:32.656Z,10.7923
2023-05-16T06:50:33.425Z,10.8170
2023-05-16T06:51:35.154Z,10.8201
2023-05-16T06:52:35.756Z,10.7708
2023-05-16T06:53:36.514Z,10.8303
2023-05-16T06:54:37.567Z,10.6659
2023-05-16T06:55:38.718Z,10.6392
2023-05-16T06:56:39.484Z,10.5189
2023-05-16T06:57:40.296Z,10.5390
2023-05-16T06:58:41.511Z,10.5472
2023-05-16T06:59:42.924Z,10.5967
2023-05-16T07:00:43.820Z,10.6495
2023-05-16T07:01:45.260Z,10.6226
2023-05-16T07:02:46.028Z,10.5648
2023-05-16T07:03:46.984Z,10.5371
2023-05-16T07:04:47.773Z,10.6158
2023-05-16T07:05:49.066Z,10.6202
2023-05-16T07:06:50.641Z,10.5840
2023-05-16T07:07:52.224Z,10.6753
2023-05-16T07:09:53.425Z,10.5090
2023-05-16T07:10:54.014Z,10.5587
2023-05-16T07:11:55.188Z,10.6755
2023-05-16T07:12:56.391Z,10.7023
2023-05-16T07:13:56.949Z,10.6579
2023-05-16T07:14:57.510Z,10.7152
2023-05-16T07:15:58.834Z,10.7941
2023-05-16T07:16:59.581Z,10.9320
2023-05-16T07:18:00.245Z,11.0788
2023-05-16T07:19:01.517Z,11.2289
2023-05-16T07:20:03.659Z,11.2385
2023-05-16T07:21:03.029Z,11.1607
2023-05-16T07:22:04.322Z,11.2016
2023-05-16T07:23:05.676Z,11.2752
2023-05-16T07:24:06.284Z,11.4454
2023-05-16T07:26:08.161Z,11.4119
2023-05-16T07:27:09.749Z,11.6668
2023-05-16T07:28:10.832Z,11.8040
2023-05-16T07:29:12.021Z,11.8211
2023-05-16T07:30:12.592Z,11.5652
2023-05-16T07:32:14.598Z,11.4149
2023-05-16T07:33:16.195Z,11.3830
2023-05-16T07:34:17.373Z,11.4551
2023-05-16T07:35:18.664Z,11.3642
2023-05-16T07:36:19.249Z,11.3257
2023-05-16T07:37:19.967Z,11.3410
2023-05-16T07:38:21.123Z,11.3063
2023-05-16T07:39:21.725Z,11.3103
2023-05-16T07:40:22.282Z,11.4213
2023-05-16T07:41:23.750Z,11.4611
2023-05-16T07:42:25.287Z,11.3427
2023-05-16T07:43:26.640Z,11.2292
2023-05-16T07:44:28.526Z,11.3594
2023-05-16T07:45:30.006Z,11.4325
2023-05-16T07:46:30.898Z,11.6419
2023-05-16T07:47:32.110Z,12.0885
2023-05-16T07:48:32.739Z,12.1652
2023-05-16T07:49:33.320Z,12.4508
2023-05-16T07:50:33.872Z,13.2888
2023-05-16T07:51:35.532Z,14.5546
2023-05-16T07:53:36.552Z,14.8884
2023-05-16T07:54:37.115Z,13.8858
2023-05-16T07:55:37.665Z,14.0027
2023-05-16T07:56:38.803Z,13.8587
2023-05-16T07:57:40.113Z,13.3547
2023-05-16T07:58:40.662Z,13.3880
2023-05-16T07:59:41.960Z,13.8055
2023-05-16T08:00:42.502Z,13.9836
2023-05-16T08:01:43.719Z,13.0763
2023-05-16T08:02:44.357Z,13.0681
2023-05-16T08:03:45.238Z,13.4372
2023-05-16T08:04:46.874Z,13.1855
2023-05-16T08:05:48.332Z,12.6059
2023-05-16T08:06:48.942Z,12.7517
2023-05-16T08:07:50.199Z,12.6943
2023-05-16T08:08:50.796Z,12.7676
2023-05-16T08:09:51.339Z,12.6185
2023-05-16T08:10:51.937Z,12.4879
2023-05-16T08:11:52.507Z,12.4519
2023-05-16T08:12:53.101Z,12.5060
2023-05-16T08:13:53.920Z,12.1073
2023-05-16T08:14:54.531Z,12.1618
2023-05-16T08:18:56.840Z,12.7822
2023-05-16T08:19:58.004Z,12.9243
2023-05-16T08:20:58.601Z,12.8738
2023-05-16T08:21:59.212Z,12.7018
2023-05-16T08:23:00.705Z,12.6717
2023-05-16T08:24:01.273Z,12.2682
2023-05-16T08:25:02.615Z,12.1262
2023-05-16T08:26:03.207Z,12.1959
2023-05-16T08:27:04.448Z,12.2390
2023-05-16T08:28:05.964Z,12.3317
2023-05-16T08:29:07.189Z,12.4941
2023-05-16T08:30:08.485Z,12.4651
2023-05-16T08:31:09.162Z,12.2283
2023-05-16T08:32:10.005Z,12.2395
2023-05-16T08:33:10.624Z,12.3850
2023-05-16T08:36:12.258Z,12.4589
2023-05-16T08:38:13.251Z,12.1517
2023-05-16T08:39:13.846Z,12.2402
2023-05-16T08:40:14.425Z,12.0482
2023-05-16T08:41:15.032Z,12.2183
2023-05-16T08:44:16.457Z,12.3416
2023-05-16T08:45:17.053Z,12.3550
2023-05-16T08:46:18.670Z,12.2398
2023-05-16T08:47:19.494Z,12.0426
2023-05-16T08:48:20.689Z,11.9741
2023-05-16T08:49:21.931Z,12.2425
2023-05-16T08:50:22.832Z,12.4243
2023-05-16T08:51:24.074Z,12.3876
2023-05-16T08:52:24.692Z,12.5150
2023-05-16T08:53:27.748Z,12.5739
2023-05-16T09:00:28.877Z,12.6622
2023-05-16T09:01:29.536Z,12.9152
2023-05-16T09:02:30.820Z,13.2514
2023-05-16T09:03:31.717Z,13.3174
2023-05-16T09:04:32.447Z,13.1600
2023-05-16T09:05:33.336Z,13.0553
2023-05-16T09:06:34.368Z,12.9305
2023-05-16T09:07:34.970Z,12.8527
2023-05-16T09:08:35.573Z,12.7382
2023-05-16T09:09:36.739Z,12.8585
2023-05-16T09:10:37.359Z,12.9505
2023-05-16T09:11:38.562Z,12.9685
2023-05-16T09:12:39.161Z,12.9072
2023-05-16T09:13:39.744Z,12.8507
2023-05-16T09:14:40.981Z,12.6892
2023-05-16T09:15:42.170Z,12.5525
2023-05-16T09:16:42.774Z,12.3974
2023-05-16T09:17:44.073Z,12.6195
2023-05-16T09:18:45.064Z,12.5455
2023-05-16T09:19:45.801Z,12.6803
2023-05-16T09:20:47.235Z,12.6898
2023-05-16T09:21:48.407Z,12.9283
2023-05-16T09:22:48.977Z,13.1751
2023-05-16T09:24:50.631Z,13.0318
2023-05-16T09:25:51.278Z,13.0999
2023-05-16T09:26:51.846Z,13.0114
2023-05-16T09:27:53.093Z,12.8193
2023-05-16T09:28:53.700Z,13.0254
2023-05-16T09:29:54.938Z,12.7676
2023-05-16T09:30:56.324Z,12.6914
2023-05-16T09:31:56.910Z,12.6541
2023-05-16T09:32:57.568Z,12.6756
2023-05-16T09:33:58.465Z,12.9838
2023-05-16T09:34:59.061Z,12.7988
2023-05-16T09:35:59.686Z,13.0281
2023-05-16T09:37:00.267Z,12.6003
2023-05-16T09:38:00.918Z,12.5349
2023-05-16T09:39:01.532Z,12.5127
2023-05-16T09:40:02.774Z,12.1846
2023-05-16T09:41:03.419Z,11.9995
2023-05-16T09:42:04.008Z,11.9200
2023-05-16T09:43:04.697Z,11.7594
2023-05-16T09:44:05.306Z,11.7234
2023-05-16T09:45:05.934Z,11.6777
2023-05-16T09:46:06.570Z,11.5152
2023-05-16T09:47:07.221Z,11.3976
2023-05-16T09:48:07.884Z,11.2809
2023-05-16T09:49:08.572Z,11.1665
2023-05-16T09:50:09.204Z,11.0389
2023-05-16T09:51:09.835Z,11.0285
2023-05-16T09:52:10.407Z,11.0000
2023-05-16T09:53:11.022Z,10.9719
2023-05-16T09:54:11.662Z,10.9354
2023-05-16T09:55:12.191Z,10.8903
2023-05-16T09:56:12.799Z,10.8832
2023-05-16T09:57:13.493Z,10.8100
2023-05-16T09:59:14.557Z,10.7766
2023-05-16T10:00:15.248Z,10.7993
2023-05-16T10:01:15.847Z,10.7833
2023-05-16T10:02:16.734Z,10.8560
2023-05-16T10:03:17.502Z,10.8019
2023-05-16T10:04:19.269Z,10.7163
2023-05-16T10:05:20.426Z,10.7451
2023-05-16T10:06:21.019Z,10.8511
2023-05-16T10:07:21.631Z,10.8911
2023-05-16T10:08:22.812Z,10.8905
2023-05-16T10:09:24.066Z,10.7897
2023-05-16T10:10:25.916Z,10.6785
2023-05-16T10:11:26.962Z,10.7151
2023-05-16T10:12:28.154Z,10.7466
2023-05-16T10:13:29.762Z,10.8452
2023-05-16T10:14:30.338Z,10.8385
2023-05-16T10:15:31.498Z,10.8548
2023-05-16T10:16:32.198Z,10.9028
2023-05-16T10:17:32.794Z,10.9257
2023-05-16T10:18:33.948Z,10.9853
2023-05-16T10:19:35.461Z,11.0171
2023-05-16T10:20:36.059Z,11.0067
2023-05-16T10:21:37.244Z,11.1052
2023-05-16T10:22:38.687Z,11.1881
2023-05-16T10:23:39.309Z,11.0191
2023-05-16T10:24:40.413Z,11.0787
2023-05-16T10:25:41.560Z,11.2054
2023-05-16T10:26:42.169Z,10.9925
2023-05-16T10:28:43.235Z,11.0532
2023-05-16T10:29:54.271Z,11.0621
2023-05-16T10:30:45.973Z,10.9988
2023-05-16T10:31:46.557Z,11.1092
2023-05-16T10:32:47.111Z,11.0540
2023-05-16T10:33:47.727Z,10.9394
2023-05-16T10:34:48.451Z,10.9844
2023-05-16T10:35:49.070Z,10.9907
2023-05-16T10:36:49.836Z,10.8312
2023-05-16T10:37:50.496Z,10.9614
2023-05-16T10:38:51.118Z,10.9083
2023-05-16T10:39:51.781Z,10.9286
2023-05-16T10:40:52.366Z,10.8749
2023-05-16T10:41:52.956Z,10.6607
2023-05-16T10:42:53.599Z,10.5461
2023-05-16T10:43:54.253Z,10.4392
2023-05-16T10:45:04.904Z,10.3421
2023-05-16T10:45:56.379Z,10.3275
2023-05-16T10:46:57.158Z,10.2997
2023-05-16T10:47:57.814Z,10.3253
2023-05-16T10:48:58.873Z,10.3522
2023-05-16T10:51:00.294Z,10.3093
2023-05-16T10:52:00.960Z,10.2701
2023-05-16T10:53:01.616Z,10.2555
2023-05-16T10:54:02.284Z,10.2248
2023-05-16T10:55:02.920Z,10.2053
2023-05-16T10:56:03.606Z,10.2020
2023-05-16T10:57:05.366Z,10.2282
2023-05-16T10:58:06.047Z,10.2735
2023-05-16T10:59:06.736Z,10.3106
2023-05-16T11:00:07.408Z,10.3844
2023-05-16T11:01:08.161Z,10.4915
2023-05-16T11:02:08.810Z,10.6225
2023-05-16T11:03:09.667Z,10.6898
2023-05-16T11:04:10.431Z,10.6772
2023-05-16T11:05:11.120Z,10.7951
2023-05-16T11:06:11.736Z,10.9881
2023-05-16T11:07:12.542Z,10.9513
2023-05-16T11:08:13.291Z,10.8462
2023-05-16T11:09:14.058Z,10.8831
2023-05-16T11:10:14.755Z,10.8919
2023-05-16T11:11:15.433Z,10.8236
2023-05-16T11:12:16.175Z,10.7457
2023-05-16T11:13:16.918Z,10.7941
2023-05-16T11:14:17.564Z,10.7472
2023-05-16T11:16:18.704Z,10.7187
2023-05-16T11:17:19.524Z,10.8134
2023-05-16T11:18:20.380Z,10.8519
2023-05-16T11:19:21.100Z,10.7397
2023-05-16T11:20:21.850Z,10.6625
2023-05-16T11:22:23.170Z,10.6489
2023-05-16T11:23:23.865Z,10.6087
2023-05-16T11:24:24.680Z,10.5776
2023-05-16T11:25:25.369Z,10.6799
2023-05-16T11:26:26.023Z,10.6978
2023-05-16T11:27:26.659Z,10.6243
2023-05-16T11:28:27.319Z,10.5698
2023-05-16T11:29:27.969Z,10.5030
2023-05-16T11:30:28.615Z,10.3906
2023-05-16T11:31:29.300Z,10.3613
2023-05-16T11:32:30.002Z,10.3447
2023-05-16T11:34:31.121Z,10.4033
2023-05-16T11:35:31.770Z,10.4397
2023-05-16T11:36:32.397Z,10.4002
2023-05-16T11:37:33.036Z,10.3713
2023-05-16T11:38:33.720Z,10.3055
2023-05-16T11:39:34.449Z,10.2774
2023-05-16T11:40:35.193Z,10.3534
2023-05-16T11:41:35.808Z,10.3723
2023-05-16T11:42:36.517Z,10.2881
2023-05-16T11:43:37.208Z,10.2835
2023-05-16T11:44:37.803Z,10.3304
2023-05-16T11:45:38.455Z,10.3857
2023-05-16T11:46:39.176Z,10.2966
2023-05-16T11:47:39.821Z,10.3259
2023-05-16T11:48:40.552Z,10.3568
2023-05-16T11:49:41.169Z,10.2643
2023-05-16T11:54:10.226Z,10.2764
2023-05-16T11:55:10.960Z,10.2799
2023-05-16T11:56:11.763Z,10.3322
2023-05-16T11:57:12.457Z,10.3678
2023-05-16T11:58:13.149Z,10.3738
2023-05-16T11:59:13.846Z,10.3513
2023-05-16T12:00:14.533Z,10.3681
2023-05-16T12:01:15.321Z,10.3144
2023-05-16T12:02:16.065Z,10.3183
2023-05-16T12:03:16.834Z,10.3565
2023-05-16T12:04:17.893Z,10.3878
2023-05-16T12:05:19.009Z,10.3474
2023-05-16T12:06:19.741Z,10.4122
2023-05-16T12:07:23.126Z,10.4815
2023-05-16T12:08:21.189Z,10.4721
2023-05-16T12:09:21.886Z,10.5103
2023-05-16T12:10:22.579Z,10.4909
2023-05-16T12:12:23.717Z,10.4489
2023-05-16T12:13:24.451Z,10.4154
2023-05-16T12:14:25.128Z,10.4005
2023-05-16T12:15:25.969Z,10.4113
2023-05-16T12:16:26.989Z,10.4795
2023-05-16T12:17:27.696Z,10.5038
2023-05-16T12:18:28.350Z,10.5972
2023-05-16T12:19:29.096Z,10.5323
2023-05-16T12:20:29.772Z,10.7209
2023-05-16T12:21:30.424Z,10.8437
2023-05-16T12:22:31.076Z,10.9671
2023-05-16T12:23:31.751Z,10.9285
2023-05-16T12:24:32.437Z,10.7431
2023-05-16T12:25:33.093Z,10.7651
2023-05-16T12:26:34.432Z,10.8215
2023-05-16T12:27:35.088Z,10.7954
2023-05-16T12:28:35.820Z,10.7421
2023-05-16T12:29:36.461Z,10.7959
2023-05-16T12:30:37.136Z,10.7437
2023-05-16T12:31:37.835Z,10.6842
2023-05-16T12:32:38.705Z,10.6520
2023-05-16T12:33:39.702Z,10.6381
2023-05-16T12:34:40.396Z,10.6636
2023-05-16T12:36:41.528Z,10.6101
2023-05-16T12:37:42.150Z,10.6047
2023-05-16T12:38:42.882Z,10.5119
2023-05-16T12:39:43.639Z,10.5375
2023-05-16T12:40:44.312Z,10.5943
2023-05-16T12:41:45.605Z,10.5819
2023-05-16T12:42:46.250Z,10.4482
2023-05-16T12:43:46.927Z,10.4466
2023-05-16T12:44:47.598Z,10.5570
2023-05-16T12:45:48.329Z,10.4880
2023-05-16T12:46:49.192Z,10.5409
2023-05-16T12:47:49.909Z,10.5954
2023-05-16T12:48:50.581Z,10.6391
2023-05-16T12:49:51.255Z,10.5493
2023-05-16T12:51:52.580Z,10.4524
2023-05-16T12:52:53.327Z,10.4257
2023-05-16T12:54:08.636Z,10.4462
2023-05-16T12:54:55.548Z,10.4858
2023-05-16T12:56:56.988Z,10.3944
2023-05-16T12:57:57.796Z,10.3611
2023-05-16T12:58:58.436Z,10.3600
2023-05-16T12:59:59.131Z,10.2802
2023-05-16T13:00:59.892Z,10.2378
2023-05-16T13:02:00.757Z,10.2958
2023-05-16T13:04:02.317Z,10.2886
2023-05-16T13:05:03.044Z,10.3069
2023-05-16T13:06:03.705Z,10.2902
2023-05-16T13:07:04.385Z,10.3899
2023-05-16T13:08:05.072Z,10.4168
2023-05-16T13:10:06.733Z,10.3860
2023-05-16T13:11:07.619Z,10.4495
2023-05-16T13:12:08.331Z,10.4200
2023-05-16T13:13:09.032Z,10.4820
2023-05-16T13:14:09.663Z,10.4990
2023-05-16T13:15:10.361Z,10.4461
2023-05-16T13:16:11.076Z,10.4614
2023-05-16T13:17:11.735Z,10.4473
2023-05-16T13:18:12.442Z,10.4314
2023-05-16T13:19:13.263Z,10.4601
2023-05-16T13:20:14.008Z,10.5050
2023-05-16T13:21:14.708Z,10.4970
2023-05-16T13:22:15.433Z,10.6152
2023-05-16T13:23:16.174Z,10.7375
2023-05-16T13:24:16.862Z,10.7527
2023-05-16T13:25:17.533Z,10.8115
2023-05-16T13:27:18.771Z,10.7883
2023-05-16T13:28:19.444Z,10.7292
2023-05-16T13:29:20.092Z,10.8528
2023-05-16T13:30:20.791Z,10.9180
2023-05-16T13:31:21.484Z,10.9045
2023-05-16T13:32:22.137Z,11.0000
2023-05-16T13:33:22.921Z,11.0626
2023-05-16T13:34:23.587Z,11.0745
2023-05-16T13:35:24.247Z,11.1570
2023-05-16T13:36:24.893Z,11.2545
2023-05-16T13:37:25.589Z,11.3066
2023-05-16T13:38:26.260Z,11.4483
2023-05-16T13:39:26.944Z,11.3535
2023-05-16T13:40:27.662Z,11.3755
2023-05-16T13:41:28.406Z,11.3097
2023-05-16T13:42:29.089Z,11.4271
2023-05-16T13:43:29.795Z,11.5993
2023-05-16T13:45:31.143Z,11.4718